createdAt,value
2019-01-21T00:00:42.898Z,84.59
2019-01-21T00:03:14.812Z,84.48
2019-01-21T00:05:44.166Z,84.39
2019-01-21T00:08:13.845Z,84.40
2019-01-21T00:10:43.520Z,84.38
2019-01-21T00:13:13.457Z,84.40
2019-01-21T00:15:43.073Z,84.46
2019-01-21T00:18:12.801Z,84.51
2019-01-21T00:20:42.392Z,84.50
2019-01-21T00:23:11.956Z,84.51
2019-01-21T00:25:41.553Z,84.47
2019-01-21T00:28:11.110Z,84.48
2019-01-21T00:30:40.799Z,84.43
2019-01-21T00:33:10.455Z,84.49
2019-01-21T00:35:40.042Z,84.56
2019-01-21T00:38:09.608Z,84.65
2019-01-21T00:40:39.533Z,84.66
2019-01-21T00:43:09.164Z,84.57
2019-01-21T00:45:38.727Z,84.67
2019-01-21T00:48:08.387Z,84.79
2019-01-21T00:50:38.313Z,84.81
2019-01-21T00:53:09.087Z,84.77
2019-01-21T00:55:38.637Z,84.68
2019-01-21T00:58:08.297Z,84.55
2019-01-21T01:00:37.939Z,84.41
2019-01-21T01:03:07.717Z,84.46
2019-01-21T01:05:37.344Z,84.56
2019-01-21T01:08:07.088Z,84.55
2019-01-21T01:10:36.722Z,84.54
2019-01-21T01:13:06.301Z,84.52
2019-01-21T01:15:37.511Z,84.49
2019-01-21T01:18:07.239Z,84.46
2019-01-21T01:20:36.796Z,84.42
2019-01-21T01:23:06.912Z,84.47
2019-01-21T01:25:36.541Z,84.46
2019-01-21T01:28:06.354Z,84.42
2019-01-21T01:30:35.911Z,84.48
2019-01-21T01:33:05.930Z,84.57
2019-01-21T01:35:36.712Z,84.59
2019-01-21T01:38:06.528Z,84.53
2019-01-21T01:40:36.144Z,84.51
2019-01-21T01:43:05.902Z,84.53
2019-01-21T01:45:35.914Z,84.54
2019-01-21T01:48:06.165Z,84.46
2019-01-21T01:50:35.863Z,84.48
2019-01-21T01:53:05.715Z,84.54
2019-01-21T01:55:35.351Z,84.65
2019-01-21T01:58:05.782Z,84.66
2019-01-21T02:00:35.943Z,84.70
2019-01-21T02:03:07.375Z,84.76
2019-01-21T02:05:36.962Z,84.84
2019-01-21T02:08:06.801Z,84.93
2019-01-21T02:10:36.507Z,84.93
2019-01-21T02:13:06.530Z,84.83
2019-01-21T02:15:36.319Z,84.83
2019-01-21T02:18:06.158Z,84.74
2019-01-21T02:20:35.731Z,84.72
2019-01-21T02:23:05.763Z,84.78
2019-01-21T02:25:51.741Z,84.84
2019-01-21T02:28:34.864Z,84.84
2019-01-21T02:32:00.864Z,84.71
2019-01-21T02:34:37.588Z,84.75
2019-01-21T02:37:34.212Z,84.67
2019-01-21T02:40:20.284Z,84.73
2019-01-21T02:43:15.264Z,84.66
2019-01-21T02:46:23.001Z,84.75
2019-01-21T02:49:08.871Z,84.94
2019-01-21T02:51:57.883Z,84.96
2019-01-21T02:54:37.753Z,85.01
2019-01-21T02:57:21.002Z,84.92
2019-01-21T03:00:04.486Z,84.90
2019-01-21T03:02:44.998Z,84.96
2019-01-21T03:05:43.599Z,85.02
2019-01-21T03:08:49.790Z,85.07
2019-01-21T03:11:44.323Z,84.97
2019-01-21T03:14:24.245Z,84.94
2019-01-21T03:17:22.925Z,85.05
2019-01-21T03:20:12.208Z,85.09
2019-01-21T03:23:27.662Z,85.08
2019-01-21T03:26:07.926Z,85.08
2019-01-21T03:28:42.594Z,84.91
2019-01-21T03:31:41.313Z,84.89
2019-01-21T03:34:24.033Z,84.90
2019-01-21T03:37:33.349Z,84.80
2019-01-21T03:40:25.742Z,84.90
2019-01-21T03:43:02.749Z,84.78
2019-01-21T03:46:11.708Z,84.86
2019-01-21T03:48:43.531Z,84.90
2019-01-21T03:51:59.955Z,84.87
2019-01-21T03:54:31.971Z,84.90
2019-01-21T03:57:09.528Z,84.87
2019-01-21T03:59:58.709Z,85.00
2019-01-21T04:02:44.301Z,85.10
2019-01-21T04:05:48.528Z,85.12
2019-01-21T04:08:41.175Z,85.24
2019-01-21T04:11:33.556Z,85.35
2019-01-21T04:14:30.262Z,85.30
2019-01-21T04:17:22.471Z,85.25
2019-01-21T04:20:05.280Z,85.27
2019-01-21T04:22:45.428Z,85.32
2019-01-21T04:25:43.691Z,85.51
2019-01-21T04:28:23.533Z,85.62
2019-01-21T04:31:21.575Z,85.62
2019-01-21T04:34:07.589Z,85.68
2019-01-21T04:37:02.444Z,85.63
2019-01-21T04:39:43.154Z,85.57
2019-01-21T04:42:26.012Z,85.50
2019-01-21T04:45:06.438Z,85.52
2019-01-21T04:48:11.119Z,85.65
2019-01-21T04:50:51.219Z,85.74
2019-01-21T04:53:37.690Z,85.67
2019-01-21T04:56:20.213Z,85.65
2019-01-21T04:59:21.413Z,85.74
2019-01-21T05:01:58.384Z,85.87
2019-01-21T05:04:41.516Z,85.96
2019-01-21T05:07:35.176Z,86.12
2019-01-21T05:10:23.584Z,86.09
2019-01-21T05:13:26.101Z,86.01
2019-01-21T05:16:00.381Z,86.04
2019-01-21T05:19:12.632Z,86.09
2019-01-21T05:22:06.571Z,86.17
2019-01-21T05:24:57.619Z,86.04
2019-01-21T05:27:49.990Z,86.00
2019-01-21T05:30:32.845Z,86.00
2019-01-21T05:33:12.810Z,86.08
2019-01-21T05:36:20.629Z,86.21
2019-01-21T05:39:04.039Z,86.30
2019-01-21T05:42:11.301Z,86.22
2019-01-21T05:45:07.803Z,86.33
2019-01-21T05:47:57.014Z,86.29
2019-01-21T05:51:18.525Z,86.19
2019-01-21T05:53:55.435Z,86.14
2019-01-21T05:56:35.414Z,85.94
2019-01-21T05:59:35.149Z,85.92
2019-01-21T06:02:36.433Z,86.01
2019-01-21T06:05:34.783Z,86.14
2019-01-21T06:08:42.456Z,86.14
2019-01-21T06:11:25.363Z,86.11
2019-01-21T06:14:11.645Z,86.06
2019-01-21T06:17:03.569Z,86.14
2019-01-21T06:19:56.010Z,86.17
2019-01-21T06:22:50.774Z,86.17
2019-01-21T06:25:45.826Z,86.22
2019-01-21T06:28:49.575Z,86.30
2019-01-21T06:31:41.689Z,86.37
2019-01-21T06:34:58.692Z,86.19
2019-01-21T06:37:35.942Z,86.04
2019-01-21T06:40:21.696Z,85.86
2019-01-21T06:43:12.536Z,85.94
2019-01-21T06:46:15.139Z,85.99
2019-01-21T06:49:06.111Z,86.01
2019-01-21T06:52:17.902Z,85.92
2019-01-21T06:55:13.494Z,85.96
2019-01-21T06:58:05.693Z,85.97
2019-01-21T07:00:54.769Z,85.99
2019-01-21T07:03:48.545Z,86.11
2019-01-21T07:06:55.743Z,86.32
2019-01-21T07:09:38.840Z,86.30
2019-01-21T07:12:27.958Z,86.34
2019-01-21T07:15:16.733Z,86.36
2019-01-21T07:18:31.810Z,86.38
2019-01-21T07:21:40.600Z,86.54
2019-01-21T07:24:35.638Z,86.34
2019-01-21T07:27:18.632Z,86.32
2019-01-21T07:30:18.675Z,86.45
2019-01-21T07:32:58.680Z,86.51
2019-01-21T07:35:59.380Z,86.41
2019-01-21T07:38:54.587Z,86.40
2019-01-21T07:41:31.303Z,86.40
2019-01-21T07:44:29.847Z,86.45
2019-01-21T07:47:30.313Z,86.46
2019-01-21T07:50:10.365Z,86.36
2019-01-21T07:53:06.551Z,86.39
2019-01-21T07:56:09.405Z,86.38
2019-01-21T07:58:58.437Z,86.29
2019-01-21T08:02:07.019Z,86.16
2019-01-21T08:04:59.323Z,85.99
2019-01-21T08:07:39.243Z,85.88
2019-01-21T08:10:51.392Z,85.87
2019-01-21T08:13:42.395Z,85.88
2019-01-21T08:16:45.337Z,85.75
2019-01-21T08:19:27.766Z,85.67
2019-01-21T08:22:26.009Z,85.65
2019-01-21T08:25:32.185Z,85.63
2019-01-21T08:28:14.801Z,85.54
2019-01-21T08:31:10.197Z,85.51
2019-01-21T08:34:08.485Z,85.47
2019-01-21T08:37:15.988Z,85.36
2019-01-21T08:40:05.410Z,85.34
2019-01-21T08:42:56.114Z,85.27
2019-01-21T08:46:14.015Z,85.25
2019-01-21T08:49:17.627Z,85.22
2019-01-21T08:52:09.124Z,84.98
2019-01-21T08:54:49.484Z,84.82
2019-01-21T08:58:04.598Z,84.93
2019-01-21T09:00:54.221Z,84.96
2019-01-21T09:03:34.096Z,84.78
2019-01-21T09:06:17.071Z,84.79
2019-01-21T09:09:21.332Z,84.90
2019-01-21T09:12:22.327Z,84.96
2019-01-21T09:15:11.235Z,84.97
2019-01-21T09:17:54.482Z,84.92
2019-01-21T09:20:39.956Z,84.87
2019-01-21T09:23:29.066Z,84.83
2019-01-21T09:26:42.591Z,84.66
2019-01-21T09:29:28.855Z,84.44
2019-01-21T09:32:14.779Z,84.30
2019-01-21T09:34:52.433Z,84.23
2019-01-21T09:37:38.289Z,84.16
2019-01-21T09:40:23.799Z,84.11
2019-01-21T09:43:16.268Z,84.05
2019-01-21T09:46:11.646Z,84.11
2019-01-21T09:48:39.629Z,84.15
2019-01-21T09:51:09.571Z,84.03
2019-01-21T09:53:40.142Z,83.98
2019-01-21T09:56:09.776Z,83.92
2019-01-21T09:58:40.382Z,83.89
2019-01-21T10:01:10.574Z,83.74
2019-01-21T10:03:42.125Z,83.49
2019-01-21T10:06:11.863Z,83.30
2019-01-21T10:08:55.069Z,83.26
2019-01-21T10:11:44.158Z,83.28
2019-01-21T10:15:05.251Z,83.17
2019-01-21T10:17:45.466Z,82.96
2019-01-21T10:20:22.222Z,82.68
2019-01-21T10:23:10.464Z,82.64
2019-01-21T10:25:53.614Z,82.51
2019-01-21T10:28:36.957Z,82.21
2019-01-21T10:31:22.581Z,81.93
2019-01-21T10:33:59.809Z,81.64
2019-01-21T10:36:42.792Z,81.20
2019-01-21T10:39:31.235Z,80.94
2019-01-21T10:42:05.516Z,80.78
2019-01-21T10:44:53.980Z,80.63
2019-01-21T10:47:37.062Z,80.48
2019-01-21T10:50:25.369Z,80.44
2019-01-21T10:53:05.396Z,80.39
2019-01-21T10:56:01.966Z,80.49
2019-01-21T10:58:51.333Z,80.30
2019-01-21T11:01:58.417Z,79.96
2019-01-21T11:04:49.363Z,80.11
2019-01-21T11:07:44.437Z,80.14
2019-01-21T11:10:58.019Z,80.08
2019-01-21T11:13:52.999Z,79.84
2019-01-21T11:16:41.977Z,79.71
2019-01-21T11:19:32.984Z,79.57
2019-01-21T11:22:07.209Z,79.69
2019-01-21T11:25:13.054Z,79.73
2019-01-21T11:28:08.280Z,79.74
2019-01-21T11:31:24.927Z,79.73
2019-01-21T11:34:14.205Z,79.75
2019-01-21T11:36:51.100Z,79.72
2019-01-21T11:39:37.304Z,79.72
2019-01-21T11:42:22.907Z,79.67
2019-01-21T11:45:18.814Z,79.60
2019-01-21T11:48:13.482Z,79.31
2019-01-21T11:50:59.750Z,78.95
2019-01-21T11:53:46.165Z,78.78
2019-01-21T11:56:32.223Z,78.69
2019-01-21T11:59:30.473Z,78.82
2019-01-21T12:02:10.404Z,78.62
2019-01-21T12:04:44.673Z,78.49
2019-01-21T12:07:49.029Z,78.62
2019-01-21T12:10:56.485Z,78.91
2019-01-21T12:14:04.046Z,79.17
2019-01-21T12:17:00.545Z,79.27
2019-01-21T12:19:43.952Z,79.46
2019-01-21T12:22:45.317Z,79.79
2019-01-21T12:25:31.363Z,79.93
2019-01-21T12:28:42.275Z,80.00
2019-01-21T12:31:31.211Z,80.20
2019-01-21T12:34:08.110Z,80.55
2019-01-21T12:36:42.398Z,80.54
2019-01-21T12:39:22.591Z,80.43
2019-01-21T12:42:02.692Z,80.30
2019-01-21T12:44:54.851Z,80.09
2019-01-21T12:47:44.246Z,80.27
2019-01-21T12:50:48.780Z,80.53
2019-01-21T12:53:31.988Z,80.71
2019-01-21T12:56:28.763Z,80.84
2019-01-21T12:59:34.878Z,80.98
2019-01-21T13:02:30.804Z,81.04
2019-01-21T13:05:11.021Z,81.06
2019-01-21T13:07:47.980Z,81.16
2019-01-21T13:10:37.411Z,81.22
2019-01-21T13:13:38.163Z,81.23
2019-01-21T13:16:30.203Z,81.20
2019-01-21T13:19:27.251Z,81.20
2019-01-21T13:22:20.880Z,81.22
2019-01-21T13:25:14.836Z,81.25
2019-01-21T13:28:00.855Z,81.37
2019-01-21T13:31:04.126Z,81.41
2019-01-21T13:34:08.083Z,81.49
2019-01-21T13:36:44.976Z,81.50
2019-01-21T13:39:34.135Z,81.48
2019-01-21T13:42:08.401Z,81.56
2019-01-21T13:44:48.043Z,81.67
2019-01-21T13:47:37.201Z,81.73
2019-01-21T13:50:37.422Z,81.83
2019-01-21T13:53:33.648Z,81.93
2019-01-21T13:56:23.102Z,81.91
2019-01-21T13:59:16.687Z,81.91
2019-01-21T14:02:11.959Z,81.98
2019-01-21T14:05:13.552Z,81.99
2019-01-21T14:08:11.771Z,82.12
2019-01-21T14:10:54.638Z,82.14
2019-01-21T14:13:46.877Z,82.21
2019-01-21T14:16:32.851Z,82.29
2019-01-21T14:19:26.426Z,82.31
2019-01-21T14:22:03.051Z,82.42
2019-01-21T14:24:56.914Z,82.53
2019-01-21T14:27:33.866Z,82.70
2019-01-21T14:30:23.098Z,82.74
2019-01-21T14:33:11.875Z,82.75
2019-01-21T14:36:10.201Z,82.71
2019-01-21T14:39:09.440Z,82.72
2019-01-21T14:41:49.235Z,82.75
2019-01-21T14:44:59.651Z,82.71
2019-01-21T14:47:42.224Z,82.75
2019-01-21T14:50:21.895Z,82.69
2019-01-21T14:53:17.058Z,82.72
2019-01-21T14:56:15.489Z,82.85
2019-01-21T14:59:01.705Z,82.91
2019-01-21T15:01:57.471Z,83.00
2019-01-21T15:04:52.578Z,83.13
2019-01-21T15:07:26.870Z,83.16
2019-01-21T15:10:27.847Z,83.18
2019-01-21T15:13:07.947Z,83.37
2019-01-21T15:16:00.742Z,83.54
2019-01-21T15:18:59.324Z,83.71
2019-01-21T15:21:52.392Z,83.90
2019-01-21T15:25:13.302Z,84.02
2019-01-21T15:28:14.659Z,84.13
2019-01-21T15:31:01.055Z,84.28
2019-01-21T15:33:44.011Z,84.46
2019-01-21T15:36:53.132Z,84.64
2019-01-21T15:39:39.166Z,84.79
2019-01-21T15:42:28.402Z,84.81
2019-01-21T15:45:23.125Z,85.03
2019-01-21T15:48:30.758Z,85.24
2019-01-21T15:51:22.451Z,85.36
2019-01-21T15:54:17.144Z,85.48
2019-01-21T15:57:20.911Z,85.54
2019-01-21T16:00:07.001Z,85.67
2019-01-21T16:02:50.070Z,85.69
2019-01-21T16:05:38.826Z,85.70
2019-01-21T16:08:13.100Z,85.73
2019-01-21T16:11:02.353Z,85.86
2019-01-21T16:13:36.614Z,86.04
2019-01-21T16:16:38.429Z,86.16
2019-01-21T16:19:12.645Z,86.31
2019-01-21T16:22:17.171Z,86.35
2019-01-21T16:25:00.204Z,86.33
2019-01-21T16:28:07.880Z,86.27
2019-01-21T16:31:02.370Z,86.38
2019-01-21T16:33:51.156Z,86.34
2019-01-21T16:36:34.288Z,86.39
2019-01-21T16:39:17.291Z,86.44
2019-01-21T16:42:00.314Z,86.46
2019-01-21T16:44:29.899Z,86.56
2019-01-21T16:46:59.471Z,86.55
2019-01-21T16:49:29.051Z,86.60
2019-01-21T16:51:58.722Z,86.79
2019-01-21T16:54:28.291Z,86.85
2019-01-21T16:56:57.965Z,86.87
2019-01-21T16:59:27.532Z,86.92
2019-01-21T17:01:57.152Z,86.95
2019-01-21T17:04:26.790Z,87.02
2019-01-21T17:06:56.434Z,87.04
2019-01-21T17:09:26.069Z,87.05
2019-01-21T17:11:55.864Z,87.08
2019-01-21T17:14:25.443Z,87.08
2019-01-21T17:16:55.028Z,87.21
2019-01-21T17:19:24.593Z,87.33
2019-01-21T17:21:54.190Z,87.36
2019-01-21T17:24:24.102Z,87.36
2019-01-21T17:26:53.680Z,87.45
2019-01-21T17:29:23.268Z,87.72
2019-01-21T17:31:52.914Z,87.96
2019-01-21T17:34:22.465Z,88.27
2019-01-21T17:36:52.058Z,88.62
2019-01-21T17:39:21.620Z,88.94
2019-01-21T17:41:51.218Z,89.26
2019-01-21T17:44:20.775Z,89.42
2019-01-21T17:46:50.366Z,89.31
2019-01-21T17:49:19.935Z,89.31
2019-01-21T17:51:49.528Z,89.41
2019-01-21T17:54:19.102Z,89.43
2019-01-21T17:56:48.678Z,89.54
2019-01-21T17:59:18.260Z,89.61
2019-01-21T18:01:47.923Z,89.68
2019-01-21T18:04:17.503Z,89.84
2019-01-21T18:06:47.088Z,89.94
2019-01-21T18:09:16.730Z,90.09
2019-01-21T18:11:46.324Z,90.13
2019-01-21T18:14:15.897Z,90.11
2019-01-21T18:16:45.579Z,90.10
2019-01-21T18:19:15.166Z,90.19
2019-01-21T18:21:44.936Z,90.27
2019-01-21T18:24:14.493Z,90.30
2019-01-21T18:26:44.048Z,90.37
2019-01-21T18:29:13.631Z,90.52
2019-01-21T18:31:43.205Z,90.48
2019-01-21T18:34:12.773Z,90.59
2019-01-21T18:36:42.646Z,90.69
2019-01-21T18:39:12.563Z,90.70
2019-01-21T18:41:42.206Z,90.63
2019-01-21T18:44:11.868Z,90.63
2019-01-21T18:46:41.486Z,90.66
2019-01-21T18:49:11.226Z,90.59
2019-01-21T18:51:46.506Z,90.55
2019-01-21T18:54:12.082Z,90.48
2019-01-21T18:56:41.714Z,90.52
2019-01-21T18:59:11.380Z,90.41
2019-01-21T19:01:41.025Z,90.36
2019-01-21T19:04:10.634Z,90.32
2019-01-21T19:06:40.255Z,90.38
2019-01-21T19:09:09.835Z,90.38
2019-01-21T19:11:39.431Z,90.41
2019-01-21T19:14:09.165Z,90.48
2019-01-21T19:16:38.835Z,90.61
2019-01-21T19:19:09.442Z,90.75
2019-01-21T19:21:39.131Z,90.83
2019-01-21T19:24:08.956Z,90.89
2019-01-21T19:26:38.516Z,90.80
2019-01-21T19:29:08.119Z,90.69
2019-01-21T19:31:37.671Z,90.66
2019-01-21T19:34:07.392Z,90.56
2019-01-21T19:36:36.960Z,90.48
2019-01-21T19:39:08.096Z,90.31
2019-01-21T19:41:37.652Z,90.23
2019-01-21T19:44:07.396Z,90.22
2019-01-21T19:46:37.019Z,90.35
2019-01-21T19:49:06.774Z,90.39
2019-01-21T19:51:36.357Z,90.34
2019-01-21T19:54:06.943Z,90.24
2019-01-21T19:56:36.567Z,90.15
2019-01-21T19:59:06.207Z,90.07
2019-01-21T20:01:35.801Z,90.05
2019-01-21T20:04:05.681Z,90.00
2019-01-21T20:06:35.265Z,89.95
2019-01-21T20:09:07.765Z,89.96
2019-01-21T20:11:37.508Z,89.93
2019-01-21T20:14:07.208Z,90.04
2019-01-21T20:16:36.873Z,90.15
2019-01-21T20:19:06.434Z,90.26
2019-01-21T20:21:36.021Z,90.37
2019-01-21T20:24:05.758Z,90.44
2019-01-21T20:26:35.414Z,90.65
2019-01-21T20:29:05.254Z,90.85
2019-01-21T20:31:34.890Z,91.02
2019-01-21T20:34:04.562Z,91.12
2019-01-21T20:36:34.296Z,91.30
2019-01-21T20:39:05.530Z,91.46
2019-01-21T20:41:35.150Z,91.58
2019-01-21T20:44:05.254Z,91.50
2019-01-21T20:46:34.857Z,91.38
2019-01-21T20:49:04.425Z,91.38
2019-01-21T20:51:34.098Z,91.41
2019-01-21T20:54:03.680Z,91.43
2019-01-21T20:56:33.256Z,91.50
2019-01-21T20:59:02.822Z,91.72
2019-01-21T21:01:32.418Z,91.89
2019-01-21T21:04:01.984Z,91.88
2019-01-21T21:06:31.576Z,91.88
2019-01-21T21:09:01.230Z,91.97
2019-01-21T21:11:30.824Z,92.11
2019-01-21T21:14:00.386Z,92.19
2019-01-21T21:16:29.973Z,92.21
2019-01-21T21:18:59.540Z,92.19
2019-01-21T21:21:29.191Z,92.11
2019-01-21T21:23:58.744Z,92.08
2019-01-21T21:26:28.338Z,92.08
2019-01-21T21:28:57.919Z,92.10
2019-01-21T21:31:27.486Z,92.17
2019-01-21T21:33:57.234Z,92.22
2019-01-21T21:36:26.796Z,92.26
2019-01-21T21:38:56.371Z,92.19
2019-01-21T21:41:25.948Z,92.19
2019-01-21T21:43:55.545Z,92.28
2019-01-21T21:46:25.097Z,92.32
2019-01-21T21:48:54.754Z,92.47
2019-01-21T21:51:24.359Z,92.61
2019-01-21T21:53:53.938Z,92.73
2019-01-21T21:56:23.495Z,92.83
2019-01-21T21:58:53.103Z,92.90
2019-01-21T22:01:23.957Z,92.99
2019-01-21T22:03:53.767Z,93.11
2019-01-21T22:06:33.664Z,93.19
2019-01-21T22:09:03.920Z,93.20
2019-01-21T22:11:33.476Z,93.24
2019-01-21T22:14:03.051Z,93.29
2019-01-21T22:16:32.612Z,93.28
2019-01-21T22:19:02.193Z,93.26
2019-01-21T22:21:31.749Z,93.23
2019-01-21T22:24:01.333Z,93.23
2019-01-21T22:26:30.886Z,93.30
2019-01-21T22:29:00.481Z,93.33
2019-01-21T22:31:30.054Z,93.47
2019-01-21T22:33:59.622Z,93.55
2019-01-21T22:36:29.185Z,93.69
2019-01-21T22:38:58.772Z,93.76
2019-01-21T22:41:28.323Z,93.78
2019-01-21T22:43:57.989Z,93.87
2019-01-21T22:46:27.539Z,93.92
2019-01-21T22:48:57.121Z,94.00
2019-01-21T22:51:26.668Z,94.09
2019-01-21T22:53:56.252Z,94.16
2019-01-21T22:56:25.819Z,94.27
2019-01-21T22:58:55.403Z,94.33
2019-01-21T23:01:25.616Z,94.35
2019-01-21T23:03:55.555Z,94.40
2019-01-21T23:06:25.124Z,94.37
2019-01-21T23:08:54.699Z,94.42
2019-01-21T23:11:24.253Z,94.50
2019-01-21T23:13:53.944Z,94.56
2019-01-21T23:16:23.588Z,94.48
2019-01-21T23:18:53.284Z,94.44
2019-01-21T23:21:22.879Z,94.51
2019-01-21T23:23:52.442Z,94.59
2019-01-21T23:26:22.087Z,94.58
2019-01-21T23:28:51.920Z,94.61
2019-01-21T23:31:21.511Z,94.62
2019-01-21T23:33:51.088Z,94.78
2019-01-21T23:36:20.672Z,94.95
2019-01-21T23:38:50.221Z,95.01
2019-01-21T23:41:20.154Z,95.06
2019-01-21T23:43:49.721Z,95.13
2019-01-21T23:46:19.368Z,95.15
2019-01-21T23:48:48.926Z,95.13
2019-01-21T23:51:18.572Z,95.18
2019-01-21T23:53:48.310Z,95.17
2019-01-21T23:56:17.963Z,95.19
2019-01-21T23:58:47.525Z,95.16
